createdAt,value
2022-09-19T00:01:37.750Z,45.23
2022-09-19T00:07:01.071Z,45.58
2022-09-19T00:12:23.343Z,45.48
2022-09-19T00:17:45.085Z,45.28
2022-09-19T00:23:25.386Z,45.16
2022-09-19T00:28:47.765Z,45.08
2022-09-19T00:34:10.447Z,45.01
2022-09-19T00:39:32.151Z,45.29
2022-09-19T00:45:01.080Z,45.26
2022-09-19T00:50:28.317Z,45.06
2022-09-19T00:55:56.358Z,45.28
2022-09-19T01:01:18.222Z,45.42
2022-09-19T01:06:56.360Z,45.11
2022-09-19T01:12:47.837Z,45.46
2022-09-19T01:18:10.677Z,45.00
2022-09-19T01:23:36.850Z,45.07
2022-09-19T01:29:17.670Z,45.15
2022-09-19T01:34:51.752Z,45.17
2022-09-19T01:40:14.724Z,45.04
2022-09-19T01:45:41.391Z,44.99
2022-09-19T01:51:30.100Z,45.33
2022-09-19T01:56:54.787Z,45.03
2022-09-19T02:02:30.175Z,45.13
2022-09-19T02:08:04.287Z,45.25
2022-09-19T02:13:28.811Z,45.14
2022-09-19T02:18:55.078Z,45.22
2022-09-19T02:24:23.233Z,45.22
2022-09-19T02:29:49.507Z,45.33
2022-09-19T02:35:14.387Z,45.15
2022-09-19T02:40:45.260Z,44.95
2022-09-19T02:46:15.882Z,45.10
2022-09-19T02:51:47.919Z,45.36
2022-09-19T02:57:15.671Z,45.23
2022-09-19T03:02:41.276Z,44.90
2022-09-19T03:08:05.142Z,44.92
2022-09-19T03:13:27.602Z,45.23
2022-09-19T03:18:56.825Z,44.90
2022-09-19T03:24:18.480Z,44.98
2022-09-19T03:29:40.126Z,45.39
2022-09-19T03:35:03.979Z,45.09
2022-09-19T03:40:26.570Z,45.16
2022-09-19T03:45:51.098Z,45.18
2022-09-19T03:51:14.454Z,45.18
2022-09-19T03:56:36.102Z,45.15
2022-09-19T04:01:59.491Z,45.17
2022-09-19T04:07:21.228Z,45.16
2022-09-19T04:12:43.087Z,45.35
2022-09-19T04:18:05.274Z,44.85
2022-09-19T04:23:27.367Z,45.32
2022-09-19T04:28:48.982Z,45.27
2022-09-19T04:34:17.876Z,45.11
2022-09-19T04:39:39.635Z,45.16
2022-09-19T04:45:01.431Z,44.92
2022-09-19T04:50:23.068Z,45.37
2022-09-19T04:55:44.907Z,45.09
2022-09-19T05:01:06.731Z,45.23
2022-09-19T05:06:29.778Z,44.84
2022-09-19T05:11:51.504Z,45.27
2022-09-19T05:17:13.400Z,44.82
2022-09-19T05:22:35.085Z,45.27
2022-09-19T05:28:07.403Z,45.17
2022-09-19T05:33:29.180Z,44.89
2022-09-19T05:38:50.891Z,44.95
2022-09-19T05:44:14.442Z,44.85
2022-09-19T05:49:36.226Z,45.26
2022-09-19T05:54:57.898Z,45.21
2022-09-19T06:00:20.997Z,44.93
2022-09-19T06:05:44.966Z,45.12
2022-09-19T06:11:07.725Z,45.04
2022-09-19T06:16:29.467Z,44.86
2022-09-19T06:21:52.411Z,44.69
2022-09-19T06:27:14.038Z,44.69
2022-09-19T06:32:39.171Z,44.34
2022-09-19T06:38:04.343Z,44.67
2022-09-19T06:43:27.416Z,44.60
2022-09-19T06:48:52.114Z,44.43
2022-09-19T06:54:13.828Z,44.74
2022-09-19T06:59:35.463Z,44.43
2022-09-19T07:04:57.119Z,44.63
2022-09-19T07:10:20.956Z,44.36
2022-09-19T07:15:43.051Z,44.55
2022-09-19T07:21:04.907Z,44.18
2022-09-19T07:26:26.676Z,44.46
2022-09-19T07:31:48.401Z,44.01
2022-09-19T07:37:10.141Z,44.23
2022-09-19T07:42:31.837Z,44.40
2022-09-19T07:47:54.071Z,43.97
2022-09-19T07:53:20.944Z,44.47
2022-09-19T07:58:42.620Z,44.49
2022-09-19T08:04:04.293Z,44.50
2022-09-19T08:09:25.921Z,44.24
2022-09-19T08:14:47.897Z,44.35
2022-09-19T08:20:09.790Z,44.47
2022-09-19T08:25:33.956Z,44.28
2022-09-19T08:31:01.080Z,44.05
2022-09-19T08:36:23.511Z,44.26
2022-09-19T08:42:09.701Z,44.26
2022-09-19T08:47:35.245Z,43.96
2022-09-19T08:52:59.479Z,44.30
2022-09-19T08:58:25.528Z,43.98
2022-09-19T09:04:08.627Z,43.93
2022-09-19T09:09:35.609Z,44.19
2022-09-19T09:15:43.370Z,44.49
2022-09-19T09:21:07.569Z,44.29
2022-09-19T09:26:38.008Z,44.35
2022-09-19T09:32:24.783Z,44.39
2022-09-19T09:38:03.557Z,44.20
2022-09-19T09:43:31.299Z,44.30
2022-09-19T09:48:53.999Z,44.14
2022-09-19T09:54:59.192Z,44.07
2022-09-19T10:00:39.723Z,44.33
2022-09-19T10:06:26.600Z,43.88
2022-09-19T10:17:58.736Z,44.07
2022-09-19T10:23:26.837Z,44.04
2022-09-19T10:28:55.106Z,44.23
2022-09-19T10:34:37.497Z,44.24
2022-09-19T10:40:05.812Z,43.92
2022-09-19T10:45:37.804Z,44.27
2022-09-19T10:51:00.756Z,43.80
2022-09-19T10:56:24.431Z,43.73
2022-09-19T11:02:25.416Z,44.14
2022-09-19T11:07:51.876Z,43.67
2022-09-19T11:13:20.873Z,43.67
2022-09-19T11:19:28.264Z,43.83
2022-09-19T11:25:05.697Z,43.70
2022-09-19T11:30:28.443Z,43.48
2022-09-19T11:36:05.330Z,43.42
2022-09-19T11:41:39.142Z,43.46
2022-09-19T11:47:24.294Z,43.00
2022-09-19T11:53:13.746Z,43.04
2022-09-19T11:58:45.705Z,42.98
2022-09-19T12:04:25.709Z,43.02
2022-09-19T12:09:53.524Z,42.67
2022-09-19T12:15:18.628Z,42.36
2022-09-19T12:20:44.219Z,42.02
2022-09-19T12:26:10.977Z,42.14
2022-09-19T12:31:38.268Z,41.88
2022-09-19T12:37:10.809Z,42.14
2022-09-19T12:42:56.096Z,41.53
2022-09-19T12:48:25.484Z,41.04
2022-09-19T12:53:57.131Z,40.70
2022-09-19T12:59:24.832Z,40.75
2022-09-19T13:04:58.809Z,40.48
2022-09-19T13:10:40.899Z,40.26
2022-09-19T13:16:08.696Z,40.30
2022-09-19T13:22:06.237Z,40.12
2022-09-19T13:27:27.939Z,39.92
2022-09-19T13:32:56.255Z,39.24
2022-09-19T13:38:26.972Z,39.12
2022-09-19T13:44:01.455Z,39.61
2022-09-19T13:49:32.708Z,39.60
2022-09-19T13:55:20.993Z,39.63
2022-09-19T14:00:46.060Z,39.48
2022-09-19T14:09:59.451Z,39.34
2022-09-19T14:12:40.129Z,39.65
2022-09-19T14:18:14.194Z,39.41
2022-09-19T14:23:43.081Z,39.91
2022-09-19T14:29:26.041Z,39.57
2022-09-19T14:34:49.925Z,39.78
2022-09-19T14:40:39.108Z,39.86
2022-09-19T14:46:21.871Z,39.32
2022-09-19T14:52:01.507Z,38.94
2022-09-19T14:57:23.976Z,39.52
2022-09-19T15:02:46.030Z,39.14
2022-09-19T15:08:30.261Z,38.95
2022-09-19T15:13:51.879Z,39.00
2022-09-19T15:19:13.559Z,38.96
2022-09-19T15:24:35.389Z,39.12
2022-09-19T15:29:58.895Z,39.44
2022-09-19T15:35:22.257Z,39.61
2022-09-19T15:40:44.530Z,39.51
2022-09-19T15:46:32.081Z,39.44
2022-09-19T15:52:01.408Z,39.42
2022-09-19T15:57:33.481Z,39.80
2022-09-19T16:03:00.824Z,39.95
2022-09-19T16:08:48.644Z,39.95
2022-09-19T16:14:20.010Z,40.38
2022-09-19T16:19:44.665Z,40.12
2022-09-19T16:25:06.686Z,40.09
2022-09-19T16:30:28.450Z,40.27
2022-09-19T16:35:57.447Z,40.06
2022-09-19T16:41:23.918Z,39.85
2022-09-19T16:46:59.305Z,40.03
2022-09-19T16:52:25.746Z,40.52
2022-09-19T16:57:47.399Z,40.16
2022-09-19T17:03:11.529Z,40.11
2022-09-19T17:08:33.336Z,39.88
2022-09-19T17:13:54.981Z,39.84
2022-09-19T17:19:16.641Z,39.32
2022-09-19T17:24:40.346Z,39.25
2022-09-19T17:30:02.096Z,39.68
2022-09-19T17:35:23.997Z,39.24
2022-09-19T17:40:48.812Z,39.09
2022-09-19T17:46:13.438Z,39.38
2022-09-19T17:51:35.402Z,39.26
2022-09-19T17:56:57.941Z,39.50
2022-09-19T18:02:38.200Z,39.18
2022-09-19T18:08:04.210Z,39.43
2022-09-19T18:13:25.938Z,39.40
2022-09-19T18:18:47.864Z,39.64
2022-09-19T18:24:10.884Z,39.82
2022-09-19T18:29:33.564Z,40.11
2022-09-19T18:34:55.815Z,39.76
2022-09-19T18:40:17.997Z,40.20
2022-09-19T18:45:40.468Z,39.82
2022-09-19T18:51:11.711Z,40.21
2022-09-19T18:56:33.957Z,39.87
2022-09-19T19:01:57.275Z,39.85
2022-09-19T19:07:19.116Z,39.48
2022-09-19T19:12:46.771Z,39.67
2022-09-19T19:18:10.962Z,39.23
2022-09-19T19:23:33.450Z,39.57
2022-09-19T19:28:55.614Z,39.58
2022-09-19T19:34:17.663Z,39.52
2022-09-19T19:39:39.280Z,39.61
2022-09-19T19:45:03.525Z,39.87
2022-09-19T19:50:25.390Z,39.98
2022-09-19T19:55:47.116Z,40.28
2022-09-19T20:01:17.937Z,40.16
2022-09-19T20:06:44.562Z,40.26
2022-09-19T20:12:06.488Z,40.73
2022-09-19T20:17:28.778Z,41.12
2022-09-19T20:22:51.087Z,40.98
2022-09-19T20:28:13.192Z,41.41
2022-09-19T20:33:34.851Z,41.30
2022-09-19T20:38:57.751Z,41.27
2022-09-19T20:44:21.679Z,41.43
2022-09-19T20:49:43.400Z,41.79
2022-09-19T20:55:05.978Z,41.94
2022-09-19T21:00:27.600Z,41.86
2022-09-19T21:05:53.320Z,41.93
2022-09-19T21:11:16.107Z,42.24
2022-09-19T21:16:39.962Z,42.37
2022-09-19T21:22:02.644Z,42.16
2022-09-19T21:27:24.477Z,42.34
2022-09-19T21:32:46.118Z,42.26
2022-09-19T21:38:07.768Z,42.17
2022-09-19T21:43:33.361Z,42.30
2022-09-19T21:48:55.479Z,42.38
2022-09-19T21:54:17.102Z,42.22
2022-09-19T21:59:38.796Z,42.44
2022-09-19T22:05:00.410Z,42.23
2022-09-19T22:10:22.226Z,42.49
2022-09-19T22:15:43.851Z,42.69
2022-09-19T22:21:06.333Z,42.69
2022-09-19T22:26:29.914Z,42.56
2022-09-19T22:31:51.639Z,42.48
2022-09-19T22:37:13.487Z,42.49
2022-09-19T22:42:35.279Z,42.51
2022-09-19T22:47:56.954Z,42.63
2022-09-19T22:53:18.789Z,42.58
2022-09-19T22:58:40.836Z,42.97
2022-09-19T23:04:04.758Z,42.64
2022-09-19T23:09:26.556Z,42.99
2022-09-19T23:14:48.204Z,42.65
2022-09-19T23:20:10.250Z,42.85
2022-09-19T23:25:33.013Z,42.80
2022-09-19T23:30:54.875Z,42.54
2022-09-19T23:36:19.369Z,42.65
2022-09-19T23:41:41.157Z,42.96
2022-09-19T23:47:02.847Z,43.03
2022-09-19T23:52:24.891Z,42.62
2022-09-19T23:57:46.534Z,43.00
